Bradford, Pennsylvania
Current Conditions -  °F | °C
As of 12:53 PM on Wednesday 28 Jan 2015 (Local Time) from KBFD Reporting Station
Clear Clear  
Wind Chill: 10°   Ceiling: Unl
Heat Index: 20°   Visibility: 10mi
Dew Point:   Wind: 8mph
Humidity: 44%   Direction: 280°W
Pressure: 30.17"   Gusts: NA
Location:  41.96°N, 78.65°W
Report Text: KBFD 281753Z AUTO 28007KT 10SM CLR M07/M17 A3017 RMK AO2 SLP254 I6000 T10671172 11067 21183 50002
Loading
Personal Weather Stations






























Interactive Weather Map New forecast layout! Learn more

10-Day Weather Forecast

Advertisements
Track Severe Weather on mobile